• Join FlightAware (Why Join?)
  • Login
  • US Flag 
11:38PM EDT


 

Airport Tracker/Info


-or-


 

Live Flight TrackerFlight Track Log ✈ EGF3681 ✈ 27-Jun-2013 ✈ KORD - KDAY

Flight Track Log - Related Links

Times and Time Zones

All times are in EDT time to prevent confusion due to time zone crossing. See the EGF3681 flight status page for this flight to view local times or setup timezone preferences in your user account.

Time Position Orientation Groundspeed Altitude Reporting Facility
EDT Latitude Longitude Course Direction KTS MPH feet Rate Location/Type
01:20AM 42.0167 -87.9667 90° East 168 193 3,400  Level Chicago TRACON
01:21AM 42.0667 -87.9000 45° Northeast 238 274 6,600 1,920 Climbing Chicago TRACON
01:23AM 42.0583 -87.7883 96° East 271 312 8,600 1,500 Climbing Chicago Center
01:24AM 41.9418 -87.2509 95° East  Level FlightAware Approximate
01:24AM 42.0350 -87.6572 103° East 298 343 10,200  Level Chicago Center
01:25AM 41.9333 -87.1213 90° East  Level FlightAware Approximate
01:25AM 42.0153 -87.5281 102° East 340 391 10,800  Level Chicago Center
01:26AM 41.9928 -87.3828 102° East 387 445 11,800 1,020 Climbing Chicago Center
01:27AM 41.9703 -87.2344 101° East 402 463 12,900 1,080 Climbing Chicago Center
01:28AM 41.9475 -87.0831 101° East 412 474 14,000 1,140 Climbing Chicago Center
01:29AM 41.9403 -86.9289 94° East 415 478 15,200 1,140 Climbing Chicago Center
01:30AM 41.8764 -86.7967 123° Southeast 419 482 16,300 1,020 Climbing Chicago Center
01:31AM 41.8128 -86.6844 127° Southeast 426 490 17,300 1,140 Climbing Chicago Center
01:32AM 41.7422 -86.5572 127° Southeast 428 493 18,600 1,260 Climbing Chicago Center
01:33AM 41.6567 -86.4017 126° Southeast 434 499 19,900 1,140 Climbing Chicago Center
01:34AM 41.5853 -86.2711 126° Southeast 437 503 21,000 1,080 Climbing Chicago Center
01:35AM 41.5125 -86.1394 126° Southeast 443 510 22,100 1,080 Climbing Chicago Center
01:36AM 41.4397 -86.0081 126° Southeast 443 510 23,200 1,080 Climbing Chicago Center
01:37AM 41.3592 -85.8853 131° Southeast 445 512 24,300 840 Climbing Chicago Center
01:38AM 41.2642 -85.7831 141° Southeast 442 509 25,000 300 Climbing Chicago Center
01:39AM 41.1664 -85.6731 140° Southeast 459 528 25,000  Level Chicago Center
01:40AM 41.0639 -85.5575 140° Southeast 484 557 25,000  Level Chicago Center
01:41AM 40.9586 -85.4383 139° Southeast 499 574 25,000 -300 Level Chicago Center
01:42AM 40.8522 -85.3186 140° Southeast 504 580 24,500 -1,260 Descending Chicago Center
01:43AM 40.7472 -85.1986 139° Southeast 504 580 22,500 -2,040 Descending Chicago Center
01:44AM 40.6342 -85.0739 140° Southeast 481 554 20,400 -1,800 Descending Chicago Center
01:45AM 40.5544 -84.9875 141° Southeast 466 536 19,000 -1,740 Descending Indianapolis Center
01:46AM 40.4586 -84.8808 140° Southeast 451 519 17,000 -2,040 Descending Indianapolis Center
01:47AM 40.3772 -84.7908 140° Southeast 426 490 15,500 -1,800 Descending Indianapolis Center
01:48AM 40.2783 -84.6842 141° Southeast 415 478 13,400 -1,860 Descending Indianapolis Center
01:49AM 40.1892 -84.6103 148° Southeast 385 443 11,400 -1,740 Descending Indianapolis Center
01:50AM 40.1056 -84.5458 149° Southeast 360 414 10,000 -1,620 Descending Indianapolis Center
01:51AM 40.0392 -84.4908 148° Southeast 289 333 8,200 -2,160 Descending Indianapolis Center
01:52AM 39.9725 -84.4356 148° Southeast 284 327 5,700 -2,280 Descending Indianapolis Center
01:53AM 39.9047 -84.3822 149° Southeast 283 326 3,700 -1,680 Descending Indianapolis Center
01:54AM 39.8608 -84.3272 136° Southeast 252 290 2,400 -1,320 Descending Indianapolis Center